Terminal Aerodrome Forecast
Issued by NWS

Home | Current Version | Previous Version | Graphics & Text | Print | Product List | Glossary On
Versions: 1 2 3 4 5 6 7 8 9 10 11 12 13 14 15 16 17 18 19 20 21
000
FTUS42 KMHX 011723
TAFISO
TAF
KISO 011723Z 0118/0218 34010G20KT 5SM SHRA BR OVC010
     FM012300 36005KT P6SM SCT025 BKN035
     FM020600 33005KT P6SM SKC
     FM021400 35010G15KT P6SM SKC
      AMD LTD TO CLD VIS AND WIND=

USA.gov is the U.S. government's official web portal to all federal, state and local government web resources and services.